createdAt,value
2022-11-16T00:01:21.652Z,99720.34
2022-11-16T00:03:50.223Z,99670.47
2022-11-16T00:06:17.808Z,99703.25
2022-11-16T00:08:47.425Z,99713.28
2022-11-16T00:11:17.329Z,99725.88
2022-11-16T00:13:44.157Z,99690.56
2022-11-16T00:16:15.094Z,99673.47
2022-11-16T00:18:42.681Z,99681.38
2022-11-16T00:21:09.719Z,99695.03
2022-11-16T00:23:37.792Z,99705.66
2022-11-16T00:26:05.556Z,99691.03
2022-11-16T00:28:34.057Z,99701.66
2022-11-16T00:31:01.612Z,99687.34
2022-11-16T00:33:28.644Z,99652.69
2022-11-16T00:35:55.709Z,99691.88
2022-11-16T00:38:23.449Z,99687.56
2022-11-16T00:40:50.315Z,99668.63
2022-11-16T00:43:17.163Z,99648.69
2022-11-16T00:45:45.986Z,99638.41
2022-11-16T00:48:13.571Z,99636.59
2022-11-16T00:50:40.566Z,99644.22
2022-11-16T00:53:08.272Z,99652.50
2022-11-16T00:55:35.145Z,99704.56
2022-11-16T00:58:01.967Z,99682.59
2022-11-16T01:00:28.816Z,99631.41
2022-11-16T01:03:03.389Z,99661.28
2022-11-16T01:05:30.805Z,99666.78
2022-11-16T01:07:57.910Z,99666.34
2022-11-16T01:10:26.443Z,99621.97
2022-11-16T01:12:53.703Z,99627.63
2022-11-16T01:15:23.720Z,99639.94
2022-11-16T01:17:51.848Z,99658.31
2022-11-16T01:20:21.830Z,99632.34
2022-11-16T01:22:48.942Z,99623.69
2022-11-16T01:25:16.246Z,99641.97
2022-11-16T01:27:43.704Z,99625.31
2022-11-16T01:30:13.726Z,99636.09
2022-11-16T01:32:40.721Z,99617.84
2022-11-16T01:35:08.494Z,99633.88
2022-11-16T01:37:36.853Z,99619.69
2022-11-16T01:40:07.091Z,99669.06
2022-11-16T01:42:34.065Z,99604.88
2022-11-16T01:45:05.439Z,99609.22
2022-11-16T01:47:35.554Z,99647.69
2022-11-16T01:50:11.170Z,99631.00
2022-11-16T01:52:43.601Z,99574.47
2022-11-16T01:55:11.436Z,99562.91
2022-11-16T01:57:42.481Z,99624.44
2022-11-16T02:00:11.976Z,99587.25
2022-11-16T02:02:38.569Z,99616.22
2022-11-16T02:05:06.961Z,99580.63
2022-11-16T02:07:57.971Z,99577.66
2022-11-16T02:10:35.552Z,99536.38
2022-11-16T02:13:18.023Z,99521.44
2022-11-16T02:15:51.806Z,99535.50
2022-11-16T02:18:29.956Z,99566.38
2022-11-16T02:21:44.351Z,99526.59
2022-11-16T02:24:47.725Z,99519.47
2022-11-16T02:27:37.247Z,99548.50
2022-11-16T02:30:07.044Z,99528.06
2022-11-16T02:32:38.890Z,99582.47
2022-11-16T02:35:12.073Z,99576.06
2022-11-16T02:37:43.854Z,99545.78
2022-11-16T02:40:13.448Z,99502.09
2022-11-16T02:42:44.077Z,99541.06
2022-11-16T02:45:17.494Z,99555.97
2022-11-16T02:47:46.916Z,99516.19
2022-11-16T02:50:16.938Z,99562.22
2022-11-16T02:52:43.777Z,99511.63
2022-11-16T02:55:11.662Z,99519.59
2022-11-16T02:57:44.412Z,99508.28
2022-11-16T03:00:20.574Z,99494.28
2022-11-16T03:02:55.250Z,99522.78
2022-11-16T03:05:25.911Z,99467.47
2022-11-16T03:08:00.441Z,99466.63
2022-11-16T03:10:27.607Z,99512.28
2022-11-16T03:12:54.500Z,99452.78
2022-11-16T03:15:23.135Z,99493.88
2022-11-16T03:17:50.591Z,99455.59
2022-11-16T03:20:22.448Z,99458.84
2022-11-16T03:22:52.666Z,99451.38
2022-11-16T03:25:21.285Z,99460.34
2022-11-16T03:27:53.348Z,99445.78
2022-11-16T03:30:24.239Z,99509.66
2022-11-16T03:32:56.952Z,99433.44
2022-11-16T03:35:27.886Z,99457.09
2022-11-16T03:37:57.935Z,99434.41
2022-11-16T03:40:27.115Z,99457.09
2022-11-16T03:42:55.583Z,99439.72
2022-11-16T03:45:28.117Z,99454.31
2022-11-16T03:47:54.872Z,99480.88
2022-11-16T03:50:21.812Z,99439.28
2022-11-16T03:52:48.572Z,99476.38
2022-11-16T03:55:15.656Z,99412.00
2022-11-16T03:57:42.523Z,99437.84
2022-11-16T04:00:10.638Z,99410.63
2022-11-16T04:02:38.897Z,99424.47
2022-11-16T04:05:06.047Z,99461.44
2022-11-16T04:07:32.889Z,99473.09
2022-11-16T04:09:59.786Z,99440.81
2022-11-16T04:12:26.560Z,99423.81
2022-11-16T04:14:53.355Z,99390.31
2022-11-16T04:17:23.686Z,99433.13
2022-11-16T04:19:58.129Z,99485.47
2022-11-16T04:22:31.011Z,99416.69
2022-11-16T04:25:05.029Z,99442.63
2022-11-16T04:27:32.481Z,99414.28
2022-11-16T04:30:01.460Z,99421.19
2022-11-16T04:32:28.564Z,99417.09
2022-11-16T04:34:57.019Z,99358.22
2022-11-16T04:37:23.989Z,99415.72
2022-11-16T04:39:50.789Z,99364.38
2022-11-16T04:42:18.483Z,99410.66
2022-11-16T04:44:45.234Z,99392.81
2022-11-16T04:47:12.124Z,99359.97
2022-11-16T04:49:38.907Z,99425.88
2022-11-16T04:52:07.025Z,99368.81
2022-11-16T04:54:36.288Z,99407.81
2022-11-16T04:57:03.023Z,99326.25
2022-11-16T04:59:29.798Z,99342.38
2022-11-16T05:01:56.614Z,99361.03
2022-11-16T05:04:23.331Z,99378.97
2022-11-16T05:06:50.291Z,99354.34
2022-11-16T05:09:18.566Z,99324.94
2022-11-16T05:11:45.573Z,99394.09
2022-11-16T05:14:15.166Z,99308.22
2022-11-16T05:16:41.864Z,99396.88
2022-11-16T05:19:08.856Z,99391.81
2022-11-16T05:21:35.677Z,99305.19
2022-11-16T05:24:03.596Z,99340.41
2022-11-16T05:26:34.441Z,99337.25
2022-11-16T05:29:01.226Z,99340.63
2022-11-16T05:31:27.946Z,99337.38
2022-11-16T05:33:54.724Z,99335.63
2022-11-16T05:36:22.893Z,99314.69
2022-11-16T05:38:52.731Z,99342.97
2022-11-16T05:41:22.960Z,99322.66
2022-11-16T05:43:51.088Z,99323.66
2022-11-16T05:46:17.884Z,99330.88
2022-11-16T05:48:44.762Z,99290.84
2022-11-16T05:51:11.651Z,99374.31
2022-11-16T05:53:38.614Z,99327.44
2022-11-16T05:56:06.239Z,99317.91
2022-11-16T05:58:33.480Z,99317.94
2022-11-16T06:01:01.977Z,99310.25
2022-11-16T06:03:29.564Z,99308.75
2022-11-16T06:05:56.922Z,99347.63
2022-11-16T06:08:23.777Z,99308.19
2022-11-16T06:10:50.600Z,99273.75
2022-11-16T06:13:17.491Z,99275.88
2022-11-16T06:15:50.300Z,99300.69
2022-11-16T06:18:18.588Z,99292.69
2022-11-16T06:20:45.456Z,99257.78
2022-11-16T06:23:12.156Z,99289.69
2022-11-16T06:25:39.544Z,99272.81
2022-11-16T06:28:08.146Z,99260.56
2022-11-16T06:30:35.200Z,99291.13
2022-11-16T06:33:01.947Z,99254.63
2022-11-16T06:35:30.140Z,99236.00
2022-11-16T06:37:57.955Z,99320.03
2022-11-16T06:40:25.453Z,99257.44
2022-11-16T06:42:52.181Z,99273.25
2022-11-16T06:45:18.984Z,99287.53
2022-11-16T06:47:46.647Z,99323.03
2022-11-16T06:50:13.443Z,99283.41
2022-11-16T06:52:41.635Z,99274.63
2022-11-16T06:55:09.229Z,99284.06
2022-11-16T06:57:36.070Z,99252.75
2022-11-16T07:00:04.466Z,99310.53
2022-11-16T07:03:09.341Z,99311.44
2022-11-16T07:05:39.826Z,99281.88
2022-11-16T07:08:08.268Z,99279.75
2022-11-16T07:10:35.237Z,99248.88
2022-11-16T07:13:02.952Z,99271.25
2022-11-16T07:15:29.830Z,99245.28
2022-11-16T07:17:56.663Z,99268.38
2022-11-16T07:20:23.357Z,99243.00
2022-11-16T07:22:50.161Z,99248.31
2022-11-16T07:25:18.324Z,99271.31
2022-11-16T07:27:45.124Z,99229.69
2022-11-16T07:30:13.117Z,99278.81
2022-11-16T07:32:40.016Z,99232.66
2022-11-16T07:35:07.488Z,99289.03
2022-11-16T07:37:34.241Z,99260.31
2022-11-16T07:40:01.112Z,99257.91
2022-11-16T07:42:29.306Z,99256.56
2022-11-16T07:44:56.138Z,99257.50
2022-11-16T07:47:22.921Z,99253.09
2022-11-16T07:49:49.744Z,99260.28
2022-11-16T07:52:16.531Z,99263.47
2022-11-16T07:54:43.184Z,99267.66
2022-11-16T07:57:10.023Z,99292.50
2022-11-16T07:59:38.105Z,99267.16
2022-11-16T08:02:04.946Z,99236.59
2022-11-16T08:04:31.715Z,99212.75
2022-11-16T08:06:58.614Z,99283.66
2022-11-16T08:09:25.299Z,99233.41
2022-11-16T08:11:52.023Z,99260.78
2022-11-16T08:14:18.732Z,99249.91
2022-11-16T08:16:46.980Z,99294.16
2022-11-16T08:19:15.829Z,99246.97
2022-11-16T08:21:42.576Z,99219.00
2022-11-16T08:24:09.749Z,99258.53
2022-11-16T08:26:36.489Z,99227.53
2022-11-16T08:29:03.336Z,99280.84
2022-11-16T08:31:30.069Z,99223.47
2022-11-16T08:34:00.867Z,99209.78
2022-11-16T08:36:27.965Z,99268.41
2022-11-16T08:38:54.681Z,99233.84
2022-11-16T08:41:21.709Z,99220.41
2022-11-16T08:43:48.648Z,99215.47
2022-11-16T08:46:15.340Z,99265.47
2022-11-16T08:48:42.403Z,99261.06
2022-11-16T08:51:20.503Z,99275.06
2022-11-16T08:53:49.142Z,99273.59
2022-11-16T08:56:18.301Z,99247.97
2022-11-16T08:58:45.090Z,99259.94
2022-11-16T09:01:14.007Z,99267.69
2022-11-16T09:03:41.222Z,99211.03
2022-11-16T09:06:11.341Z,99272.00
2022-11-16T09:08:40.153Z,99192.72
2022-11-16T09:11:08.880Z,99232.97
2022-11-16T09:13:35.654Z,99248.59
2022-11-16T09:16:02.819Z,99224.22
2022-11-16T09:18:30.151Z,99220.03
2022-11-16T09:20:57.118Z,99239.59
2022-11-16T09:23:25.996Z,99243.28
2022-11-16T09:25:53.105Z,99251.31
2022-11-16T09:28:20.480Z,99232.47
2022-11-16T09:30:50.664Z,99254.41
2022-11-16T09:33:17.632Z,99206.00
2022-11-16T09:35:45.673Z,99220.88
2022-11-16T09:38:17.476Z,99231.00
2022-11-16T09:40:55.028Z,99231.22
2022-11-16T09:43:42.473Z,99194.81
2022-11-16T09:46:25.743Z,99223.09
2022-11-16T09:48:58.226Z,99222.13
2022-11-16T09:51:29.698Z,99235.16
2022-11-16T09:54:02.266Z,99257.84
2022-11-16T09:56:34.400Z,99243.06
2022-11-16T09:59:17.788Z,99250.06
2022-11-16T10:01:50.686Z,99206.38
2022-11-16T10:04:22.861Z,99180.75
2022-11-16T10:06:53.186Z,99208.06
2022-11-16T10:09:22.765Z,99209.56
2022-11-16T10:11:59.364Z,99227.41
2022-11-16T10:14:56.816Z,99178.78
2022-11-16T10:17:33.428Z,99198.38
2022-11-16T10:20:18.040Z,99211.63
2022-11-16T10:26:30.070Z,99135.94
2022-11-16T10:29:14.249Z,99208.31
2022-11-16T10:31:57.849Z,99150.94
2022-11-16T10:34:37.055Z,99135.63
2022-11-16T10:37:07.438Z,99160.75
2022-11-16T10:39:34.581Z,99142.63
2022-11-16T10:42:10.268Z,99160.81
2022-11-16T10:44:41.652Z,99120.03
2022-11-16T10:47:19.137Z,99111.66
2022-11-16T10:49:53.749Z,99103.88
2022-11-16T10:52:20.540Z,99105.06
2022-11-16T10:54:47.258Z,99115.38
2022-11-16T10:57:16.823Z,99138.31
2022-11-16T10:59:47.812Z,99133.63
2022-11-16T11:02:30.252Z,99058.97
2022-11-16T11:05:06.623Z,99096.94
2022-11-16T11:07:35.550Z,99108.28
2022-11-16T11:10:02.706Z,99111.25
2022-11-16T11:12:29.547Z,99109.31
2022-11-16T11:15:07.581Z,99079.31
2022-11-16T11:17:35.699Z,99103.34
2022-11-16T11:20:04.778Z,99067.78
2022-11-16T11:22:33.037Z,99111.97
2022-11-16T11:25:02.222Z,99085.16
2022-11-16T11:27:33.742Z,99116.28
2022-11-16T11:30:01.007Z,99049.47
2022-11-16T11:32:34.301Z,99078.34
2022-11-16T11:35:02.292Z,99089.13
2022-11-16T11:37:34.734Z,99116.97
2022-11-16T11:40:07.575Z,99110.34
2022-11-16T11:42:36.524Z,99076.72
2022-11-16T11:45:08.057Z,99043.47
2022-11-16T11:47:58.091Z,99067.56
2022-11-16T11:50:38.412Z,99029.69
2022-11-16T11:53:11.624Z,99109.94
2022-11-16T11:55:40.757Z,99031.44
2022-11-16T11:58:13.547Z,99039.63
2022-11-16T12:00:50.515Z,99146.97
2022-11-16T12:03:41.784Z,99073.94
2022-11-16T12:06:17.880Z,99103.03
2022-11-16T12:09:09.011Z,99062.31
2022-11-16T12:11:53.056Z,99064.34
2022-11-16T12:14:52.213Z,99059.34
2022-11-16T12:20:44.018Z,99088.47
2022-11-16T12:23:31.974Z,99082.56
2022-11-16T12:26:10.167Z,99008.16
2022-11-16T12:28:58.250Z,98994.78
2022-11-16T12:31:51.651Z,99062.38
2022-11-16T12:34:30.602Z,98983.84
2022-11-16T12:37:12.150Z,99015.06
2022-11-16T12:40:02.782Z,98998.75
2022-11-16T12:42:44.123Z,99070.94
2022-11-16T12:45:46.823Z,99001.47
2022-11-16T12:48:42.312Z,99007.97
2022-11-16T12:51:21.136Z,99026.69
2022-11-16T12:54:11.019Z,99065.44
2022-11-16T12:56:54.626Z,99062.13
2022-11-16T12:59:38.660Z,99043.88
2022-11-16T13:02:17.520Z,99035.50
2022-11-16T13:04:52.705Z,99033.91
2022-11-16T13:07:27.768Z,99033.38
2022-11-16T13:10:00.994Z,98986.97
2022-11-16T13:12:30.611Z,99018.66
2022-11-16T13:15:08.934Z,99013.13
2022-11-16T13:23:58.717Z,98989.13
2022-11-16T13:26:35.132Z,99034.09
2022-11-16T13:29:12.011Z,98989.03
2022-11-16T13:31:44.836Z,99066.38
2022-11-16T13:34:19.012Z,99018.78
2022-11-16T13:36:46.662Z,99046.16
2022-11-16T13:39:28.547Z,99049.81
2022-11-16T13:42:24.434Z,99056.25
2022-11-16T13:45:04.544Z,98992.84
2022-11-16T13:47:48.668Z,98988.69
2022-11-16T13:50:25.645Z,98982.78
2022-11-16T13:56:06.176Z,99015.03
2022-11-16T13:58:37.534Z,99037.78
2022-11-16T14:01:06.721Z,99042.84
2022-11-16T14:03:36.614Z,98984.44
2022-11-16T14:09:41.726Z,98999.31
2022-11-16T14:12:53.069Z,98988.63
2022-11-16T14:15:32.817Z,99070.25
2022-11-16T14:18:22.240Z,98994.50
2022-11-16T14:20:55.865Z,99044.06
2022-11-16T14:23:35.099Z,99021.84
2022-11-16T14:26:12.700Z,99012.31
2022-11-16T14:28:51.194Z,98992.88
2022-11-16T14:31:25.394Z,99031.31
2022-11-16T14:33:54.782Z,99053.50
2022-11-16T14:36:37.661Z,99003.13
2022-11-16T14:39:30.791Z,98977.13
2022-11-16T14:42:00.685Z,98985.28
2022-11-16T14:44:31.827Z,98983.22
2022-11-16T14:47:02.297Z,99029.88
2022-11-16T14:49:33.018Z,99007.00
2022-11-16T14:52:01.649Z,99005.53
2022-11-16T14:54:36.779Z,99054.19
2022-11-16T14:57:06.101Z,98972.97
2022-11-16T14:59:33.028Z,98993.19
2022-11-16T15:02:04.880Z,99001.38
2022-11-16T15:04:32.102Z,99009.72
2022-11-16T15:07:03.134Z,99002.38
2022-11-16T15:09:33.890Z,98984.28
2022-11-16T15:12:07.770Z,99007.25
2022-11-16T15:14:41.894Z,99052.06
2022-11-16T15:17:20.230Z,99016.34
2022-11-16T15:19:59.039Z,98991.09
2022-11-16T15:22:31.288Z,98985.16
2022-11-16T15:25:01.087Z,99018.66
2022-11-16T15:27:41.335Z,98986.75
2022-11-16T15:30:17.080Z,99030.09
2022-11-16T15:32:51.339Z,99009.03
2022-11-16T15:35:30.066Z,99053.25
2022-11-16T15:38:05.984Z,98986.22
2022-11-16T15:40:34.606Z,99027.47
2022-11-16T15:43:09.812Z,98982.72
2022-11-16T15:45:44.803Z,98992.03
2022-11-16T15:48:26.991Z,98979.03
2022-11-16T15:51:05.252Z,99053.88
2022-11-16T15:53:45.912Z,99028.50
2022-11-16T15:56:16.771Z,99056.22
2022-11-16T15:58:47.124Z,99014.25
2022-11-16T16:04:02.121Z,98984.50
2022-11-16T16:06:47.631Z,99053.66
2022-11-16T16:09:25.484Z,99065.91
2022-11-16T16:11:53.004Z,98986.34
2022-11-16T16:14:36.713Z,98998.19
2022-11-16T16:17:49.495Z,98982.00
2022-11-16T16:24:00.406Z,99029.34
2022-11-16T16:26:43.523Z,99078.09
2022-11-16T17:06:52.612Z,99155.88
2022-11-16T17:09:20.744Z,99102.22
2022-11-16T17:11:48.116Z,99088.41
2022-11-16T17:14:15.122Z,99134.06
2022-11-16T17:16:42.249Z,99127.91
2022-11-16T17:19:09.199Z,99147.19
2022-11-16T17:21:36.080Z,99135.97
2022-11-16T17:24:06.022Z,99129.69
2022-11-16T17:26:50.040Z,99137.22
2022-11-16T17:29:28.171Z,99138.19
2022-11-16T17:32:10.215Z,99164.94
2022-11-16T17:34:37.667Z,99088.44
2022-11-16T17:37:07.040Z,99121.25
2022-11-16T17:40:03.302Z,99083.00
2022-11-16T17:42:50.928Z,99126.03
2022-11-16T17:45:31.807Z,99176.00
2022-11-16T17:48:25.189Z,99135.91
2022-11-16T17:51:01.281Z,99130.59
2022-11-16T17:53:40.916Z,99160.31
2022-11-16T17:56:28.989Z,99132.72
2022-11-16T17:59:11.314Z,99152.66
2022-11-16T18:01:40.685Z,99117.72
2022-11-16T18:04:10.886Z,99172.09
2022-11-16T18:33:40.834Z,99150.47
2022-11-16T18:36:34.409Z,99142.22
2022-11-16T18:39:31.332Z,99091.06
2022-11-16T18:42:10.201Z,99105.56
2022-11-16T18:45:10.084Z,99129.81
2022-11-16T22:41:09.828Z,99220.84
2022-11-16T22:43:37.446Z,99182.38
2022-11-16T22:46:12.732Z,99173.66
2022-11-16T22:48:52.058Z,99244.03
2022-11-16T22:51:30.536Z,99162.44
2022-11-16T22:54:04.598Z,99200.34
2022-11-16T22:56:48.997Z,99240.56
2022-11-16T22:59:15.984Z,99209.69
2022-11-16T23:01:44.480Z,99221.59
2022-11-16T23:04:16.358Z,99175.16
2022-11-16T23:06:53.946Z,99240.94
2022-11-16T23:09:22.430Z,99164.00
2022-11-16T23:11:49.765Z,99209.38
2022-11-16T23:14:21.235Z,99158.25
2022-11-16T23:16:52.366Z,99149.28
2022-11-16T23:19:20.937Z,99153.94
2022-11-16T23:21:47.641Z,99154.41
2022-11-16T23:24:15.255Z,99193.97
2022-11-16T23:26:43.464Z,99164.28
2022-11-16T23:29:11.070Z,99220.81
2022-11-16T23:31:38.572Z,99148.66
2022-11-16T23:34:05.450Z,99180.31
2022-11-16T23:36:32.157Z,99201.03
2022-11-16T23:38:58.892Z,99140.66
2022-11-16T23:41:25.639Z,99150.03
2022-11-16T23:43:53.722Z,99155.28
2022-11-16T23:46:20.455Z,99197.41
2022-11-16T23:48:47.131Z,99169.25
2022-11-16T23:51:13.797Z,99215.06
2022-11-16T23:53:40.479Z,99194.75
2022-11-16T23:56:07.707Z,99210.94
2022-11-16T23:58:34.574Z,99226.78
